This is the latest recevied weather packets stored in our database for station/object KC5AV. If no packets are shown the sender has not sent any weather packets the latest 10 day(s).
| Time | Temp. | Humidity | Pressure | Rain* | Wind** | Luminosity | Snow |
|---|---|---|---|---|---|---|---|
| 1787473639 | 26.11° C | 83% | 1015.8 hPa | 0 mm | - | 0 W/m² | - |
| 1787473334 | 26.11° C | 81% | 1015.9 hPa | 0 mm | - | 0 W/m² | - |
| 1787473030 | 26.11° C | 81% | 1015.9 hPa | 0 mm | - | 0 W/m² | - |
| 1787472726 | 26.11° C | 81% | 1015.8 hPa | 0 mm | - | 0 W/m² | - |
| 1787472421 | 26.11° C | 82% | 1015.8 hPa | 0 mm | - | 0 W/m² | - |
| 1787472116 | 26.11° C | 82% | 1016.2 hPa | 0 mm | - | 0 W/m² | - |
| 1787471812 | 26.11° C | 82% | 1016.2 hPa | 0 mm | - | 0 W/m² | - |
| 1787471508 | 26.11° C | 83% | 1016.2 hPa | 0 mm | - | 0 W/m² | - |
| 1787471203 | 25.56° C | 84% | 1016.3 hPa | 0 mm | - | 0 W/m² | - |
| 1787470900 | 25.56° C | 85% | 1016.4 hPa | 0 mm | - | 0 W/m² | - |
| 1787470596 | 25.56° C | 86% | 1016.3 hPa | 0 mm | - | 0 W/m² | - |
| 1787470306 | 25.56° C | 85% | 1016.2 hPa | 0 mm | - | 0 W/m² | - |
| 1787469988 | 25.56° C | 85% | 1016.4 hPa | 0 mm | - | 0 W/m² | - |
| 1787469684 | 26.11° C | 85% | 1016.7 hPa | 0 mm | - | 0 W/m² | - |
| 1787469384 | 26.11° C | 84% | 1016.6 hPa | 0 mm | - | 0 W/m² | - |
| 1787469080 | 26.67° C | 83% | 1016.7 hPa | 0 mm | - | 0 W/m² | - |
| 1787468776 | 26.67° C | 81% | 1016.4 hPa | 0.51 mm | - | 0 W/m² | - |
| 1787468472 | 27.22° C | 78% | 1016.4 hPa | 2.29 mm | - | 0 W/m² | - |
| 1787468172 | 28.33° C | 73% | 1016 hPa | 2.29 mm | - | 0 W/m² | - |
| 1787467868 | 30.56° C | 65% | 1016 hPa | 0.51 mm | - | 0 W/m² | - |
| 1787467563 | 30.56° C | 60% | 1016 hPa | 0 mm | - | 0 W/m² | - |
| 1787467258 | 30.56° C | 59% | 1015.8 hPa | 0 mm | - | 0 W/m² | - |
| 1787466955 | 30.56° C | 60% | 1015.6 hPa | 0 mm | - | 0 W/m² | - |
| 1787466651 | 30° C | 62% | 1015.3 hPa | 0 mm | - | 0 W/m² | - |
| 1787466351 | 30° C | 65% | 1015 hPa | 0 mm | - | 0 W/m² | - |
* Rain latest hour (hover to see other rain measurements)
** Current wind speed in m/s (hover to see current wind gust speed)